Time;durP1;ratioP1;P1;durP2;ratioP2;P2;SDS_P1;SDS_P2;PMS_P1;PMS_P2;Temp;Humidity;BMP_temperature;BMP_pressure;BME280_temperature;BME280_humidity;BME280_pressure;Samples;Min_cycle;Max_cycle;Signal;HPM_P1;HPM_P2
2023/02/02 00:01:32;;;;;;;;;;;;;;;0.74;79.25;93406.28;5037109;28;19924;-44
2023/02/02 00:03:57;;;;;;;;;;;;;;;0.84;77.75;93408.78;5032450;28;19963;-45
2023/02/02 00:06:23;;;;;;;;;;;;;;;0.83;75.69;93396.44;5049491;28;19915;-45
2023/02/02 00:08:48;;;;;;;;;;;;;;;0.58;79.28;93398.03;5046866;28;19912;-45
2023/02/02 00:11:14;;;;;;;;;;;;;;;0.58;80.29;93398.78;5049228;28;19912;-46
2023/02/02 00:13:39;;;;;;;;;;;;;;;0.64;80.35;93404.25;5046666;28;19916;-45
2023/02/02 00:16:20;;;;;;;;;;;;;;;0.65;81.18;93398.31;5045977;28;19923;-44
2023/02/02 00:18:45;;;;;;;;;;;;;;;0.66;81.67;93399.81;5040285;28;20444;-45
2023/02/02 00:21:10;;;;;;;;;;;;;;;0.50;82.19;93392.31;5043600;28;19916;-44
2023/02/02 00:23:36;;;;;;;;;;;;;;;0.41;84.23;93399.94;5039570;28;19943;-45
2023/02/02 00:26:01;;;;;;;;;;;;;;;0.32;83.85;93409.00;5044627;28;19917;-45
2023/02/02 00:28:26;;;;;;;;;;;;;;;0.28;85.21;93405.75;5033630;28;19912;-46
2023/02/02 00:30:51;;;;;;;;;;;;;;;0.41;84.91;93418.94;5041277;28;19913;-46
2023/02/02 00:33:17;;;;;;;;;;;;;;;0.67;82.14;93417.59;5042848;28;20376;-45
2023/02/02 00:35:42;;;;;;;;;;;;;;;0.73;81.14;93410.25;5042944;28;19916;-45
2023/02/02 00:38:07;;;;;;;;;;;;;;;0.60;80.86;93403.72;5046509;28;20372;-45
2023/02/02 00:40:32;;;;;;;;;;;;;;;0.52;80.87;93400.00;5045501;28;20677;-46
2023/02/02 00:42:58;;;;;;;;;;;;;;;0.57;78.28;93385.69;5046800;28;19917;-45
2023/02/02 00:45:24;;;;;;;;;;;;;;;0.56;79.04;93384.94;5047347;28;19909;-45
2023/02/02 00:47:49;;;;;;;;;;;;;;;0.62;79.13;93382.25;5046807;28;20289;-44
2023/02/02 00:50:16;;;;;;;;;;;;;;;0.59;78.82;93383.97;5049385;28;19912;-45
2023/02/02 00:52:41;;;;;;;;;;;;;;;0.38;79.83;93374.47;5046840;28;20718;-46
2023/02/02 00:55:07;;;;;;;;;;;;;;;0.05;80.66;93389.78;5044677;28;19962;-45
2023/02/02 00:57:32;;;;;;;;;;;;;;;0.01;81.11;93381.88;5036936;28;19962;-46
2023/02/02 00:59:58;;;;;;;;;;;;;;;-0.07;80.35;93384.28;5043258;28;19913;-45
2023/02/02 01:02:23;;;;;;;;;;;;;;;0.08;79.22;93386.13;5038846;28;20355;-46
2023/02/02 01:04:49;;;;;;;;;;;;;;;-0.01;80.05;93387.78;5049561;28;20380;-45
2023/02/02 01:07:14;;;;;;;;;;;;;;;-0.11;80.48;93372.88;5047347;28;19913;-45
2023/02/02 01:09:39;;;;;;;;;;;;;;;-0.19;80.99;93371.09;5048561;28;19908;-46
2023/02/02 01:12:04;;;;;;;;;;;;;;;-0.24;81.72;93367.13;5039956;28;19916;-46
2023/02/02 01:14:30;;;;;;;;;;;;;;;-0.32;81.98;93368.78;5042834;28;19999;-45
2023/02/02 01:16:55;;;;;;;;;;;;;;;-0.21;82.64;93363.44;5039694;28;19917;-45
2023/02/02 01:19:20;;;;;;;;;;;;;;;0.22;81.12;93355.38;5043596;28;19915;-46
2023/02/02 01:21:45;;;;;;;;;;;;;;;0.36;80.76;93365.31;5046273;28;19920;-45
2023/02/02 01:24:11;;;;;;;;;;;;;;;0.55;78.90;93367.16;5037249;28;19909;-47
2023/02/02 01:26:36;;;;;;;;;;;;;;;0.56;79.07;93370.63;5041211;28;20466;-46
2023/02/02 01:29:01;;;;;;;;;;;;;;;0.64;78.74;93366.97;5043225;28;19912;-46
2023/02/02 01:31:26;;;;;;;;;;;;;;;0.74;78.17;93367.47;5045271;28;19927;-45
2023/02/02 01:33:52;;;;;;;;;;;;;;;0.72;78.93;93370.69;5043705;28;19924;-45
2023/02/02 01:36:18;;;;;;;;;;;;;;;0.85;77.54;93367.53;5045628;28;20003;-46
2023/02/02 01:38:44;;;;;;;;;;;;;;;0.96;77.23;93370.31;5036987;28;19951;-45
2023/02/02 01:41:13;;;;;;;;;;;;;;;0.87;77.77;93361.63;5041007;28;19944;-46
2023/02/02 01:43:44;;;;;;;;;;;;;;;1.02;77.15;93357.47;5043472;28;19913;-46
2023/02/02 01:46:16;;;;;;;;;;;;;;;1.09;76.71;93351.56;5048879;28;19909;-45
2023/02/02 01:48:44;;;;;;;;;;;;;;;0.93;76.89;93365.09;5050552;28;19944;-45
2023/02/02 01:51:20;;;;;;;;;;;;;;;0.92;76.94;93353.50;5051485;28;19919;-45
2023/02/02 01:53:46;;;;;;;;;;;;;;;0.98;76.61;93346.09;5035578;28;20289;-46
2023/02/02 01:56:14;;;;;;;;;;;;;;;0.96;76.71;93343.13;5042649;28;19999;-45
2023/02/02 01:58:39;;;;;;;;;;;;;;;0.92;77.43;93348.06;5048327;28;20467;-45
2023/02/02 02:01:04;;;;;;;;;;;;;;;0.95;77.00;93344.38;5048144;28;19926;-46
2023/02/02 02:03:30;;;;;;;;;;;;;;;0.88;77.54;93338.66;5044686;28;20636;-45
2023/02/02 02:05:58;;;;;;;;;;;;;;;0.89;77.14;93340.88;5058348;28;19966;-46
2023/02/02 02:08:26;;;;;;;;;;;;;;;0.89;77.41;93346.31;5040383;28;20402;-46
2023/02/02 02:10:51;;;;;;;;;;;;;;;0.95;76.69;93359.94;5051668;28;19982;-48
2023/02/02 02:13:16;;;;;;;;;;;;;;;0.89;77.77;93357.16;5053655;28;19913;-46
2023/02/02 02:16:19;;;;;;;;;;;;;;;0.93;76.94;93362.41;5039831;28;20003;-45
2023/02/02 02:18:49;;;;;;;;;;;;;;;0.88;77.77;93361.13;5040265;28;19943;-46
2023/02/02 02:27:20;;;;;;;;;;;;;;;0.72;78.01;93361.78;5049347;28;20012;-46
2023/02/02 02:29:51;;;;;;;;;;;;;;;0.64;78.65;93368.94;5050040;28;20086;-46
2023/02/02 02:32:20;;;;;;;;;;;;;;;0.64;78.65;93352.63;5047767;28;20012;-45
2023/02/02 02:35:03;;;;;;;;;;;;;;;0.66;79.45;93352.88;5047757;28;20013;-45
2023/02/02 02:37:31;;;;;;;;;;;;;;;0.76;78.26;93354.16;5051658;28;19913;-45
2023/02/02 02:40:00;;;;;;;;;;;;;;;0.69;78.37;93365.50;5049084;28;19924;-47
2023/02/02 02:42:26;;;;;;;;;;;;;;;0.70;78.37;93372.41;5070019;28;20534;-46
2023/02/02 02:44:52;;;;;;;;;;;;;;;0.65;78.14;93367.72;5053962;28;19912;-46
2023/02/02 02:47:17;;;;;;;;;;;;;;;0.56;78.71;93368.63;5055469;28;19972;-45
2023/02/02 02:49:43;;;;;;;;;;;;;;;0.47;78.32;93371.56;5048145;28;19935;-46
2023/02/02 02:52:09;;;;;;;;;;;;;;;0.53;79.19;93375.06;5056080;28;19999;-46
2023/02/02 02:54:39;;;;;;;;;;;;;;;0.49;79.51;93368.34;5053314;28;20035;-45
2023/02/02 02:57:07;;;;;;;;;;;;;;;0.46;79.36;93367.34;5051207;28;20443;-47
2023/02/02 02:59:34;;;;;;;;;;;;;;;0.40;80.06;93372.00;5051396;28;19912;-46
2023/02/02 03:02:05;;;;;;;;;;;;;;;0.45;80.18;93373.28;5051913;28;19938;-46
2023/02/02 03:04:54;;;;;;;;;;;;;;;0.38;80.94;93362.88;5045980;28;20638;-45
2023/02/02 03:07:30;;;;;;;;;;;;;;;0.57;79.05;93382.97;5041182;28;19916;-45
2023/02/02 03:09:55;;;;;;;;;;;;;;;0.48;79.26;93369.56;5061283;28;19916;-46
2023/02/02 03:12:20;;;;;;;;;;;;;;;0.63;77.99;93376.34;5054337;28;20471;-46
2023/02/02 03:14:45;;;;;;;;;;;;;;;0.57;78.89;93370.13;5055378;28;19912;-46
2023/02/02 03:17:11;;;;;;;;;;;;;;;0.51;78.86;93371.34;5053240;28;19912;-46
2023/02/02 03:19:36;;;;;;;;;;;;;;;0.51;78.41;93360.47;5061265;28;20324;-46
2023/02/02 03:22:02;;;;;;;;;;;;;;;0.45;78.49;93362.41;5055511;28;19908;-47
2023/02/02 03:24:27;;;;;;;;;;;;;;;0.37;79.60;93367.53;5046571;28;20300;-46
2023/02/02 03:26:52;;;;;;;;;;;;;;;0.31;79.92;93374.16;5053781;28;19913;-45
2023/02/02 03:29:17;;;;;;;;;;;;;;;0.34;80.19;93362.34;5045645;28;20011;-46
2023/02/02 03:31:43;;;;;;;;;;;;;;;0.22;79.82;93363.53;5053919;28;19921;-46
2023/02/02 03:34:08;;;;;;;;;;;;;;;0.12;80.29;93375.78;5047094;28;19912;-46
2023/02/02 03:36:33;;;;;;;;;;;;;;;0.12;80.69;93371.09;5053630;28;19932;-45
2023/02/02 03:38:59;;;;;;;;;;;;;;;0.07;81.02;93379.94;5050119;28;20396;-45
2023/02/02 03:41:24;;;;;;;;;;;;;;;0.11;80.54;93374.31;5047328;28;19923;-45
2023/02/02 03:43:49;;;;;;;;;;;;;;;0.04;80.41;93369.31;5044670;28;19913;-45
2023/02/02 03:46:14;;;;;;;;;;;;;;;0.13;80.13;93363.69;5044148;28;19913;-45
2023/02/02 03:48:40;;;;;;;;;;;;;;;0.00;80.82;93372.25;5043704;28;20330;-45
2023/02/02 03:51:06;;;;;;;;;;;;;;;-0.05;80.92;93365.56;5045187;28;19916;-46
2023/02/02 03:53:31;;;;;;;;;;;;;;;-0.05;81.90;93371.00;5047974;28;19971;-45
2023/02/02 03:55:56;;;;;;;;;;;;;;;-0.13;81.84;93374.63;5042587;28;19916;-45
2023/02/02 03:58:22;;;;;;;;;;;;;;;-0.28;82.44;93372.03;5050480;28;19955;-45
2023/02/02 04:00:47;;;;;;;;;;;;;;;-0.33;82.39;93372.72;5046252;28;19917;-45
2023/02/02 04:03:12;;;;;;;;;;;;;;;-0.35;81.83;93377.91;5044777;28;19921;-46
2023/02/02 04:05:38;;;;;;;;;;;;;;;-0.43;82.21;93376.06;5039143;28;19935;-46
2023/02/02 04:08:03;;;;;;;;;;;;;;;-0.57;83.68;93377.69;5053959;28;19991;-45
2023/02/02 04:10:28;;;;;;;;;;;;;;;-0.69;83.47;93373.38;5045910;28;19974;-45
2023/02/02 04:12:54;;;;;;;;;;;;;;;-0.67;83.65;93370.91;5033795;28;19916;-46
2023/02/02 04:15:19;;;;;;;;;;;;;;;-0.56;83.08;93373.03;5046035;28;19912;-45
2023/02/02 04:17:44;;;;;;;;;;;;;;;-0.66;83.69;93368.97;5039618;28;19908;-46
2023/02/02 04:20:10;;;;;;;;;;;;;;;-0.70;83.58;93379.28;5049072;28;19939;-45
2023/02/02 04:22:35;;;;;;;;;;;;;;;-0.61;83.33;93379.13;5055488;28;19924;-45
2023/02/02 04:25:00;;;;;;;;;;;;;;;-0.79;83.61;93372.78;5044709;28;20260;-45
2023/02/02 04:27:26;;;;;;;;;;;;;;;-0.91;84.63;93365.75;5050280;28;19931;-45
2023/02/02 04:29:51;;;;;;;;;;;;;;;-0.85;84.65;93376.66;5046254;28;19958;-45
2023/02/02 04:32:16;;;;;;;;;;;;;;;-0.94;85.03;93372.16;5045550;28;19982;-45
2023/02/02 04:34:42;;;;;;;;;;;;;;;-0.91;85.05;93386.72;5046791;28;19912;-44
2023/02/02 04:37:07;;;;;;;;;;;;;;;-0.88;85.07;93391.91;5043005;28;19916;-44
2023/02/02 04:39:33;;;;;;;;;;;;;;;-0.99;84.88;93391.78;5045716;28;20054;-44
2023/02/02 04:41:58;;;;;;;;;;;;;;;-0.87;84.43;93395.38;5047270;28;19920;-46
2023/02/02 04:44:23;;;;;;;;;;;;;;;-1.07;85.38;93400.81;5046927;28;19917;-45
2023/02/02 04:46:48;;;;;;;;;;;;;;;-1.16;85.91;93412.53;5044199;28;19913;-45
2023/02/02 04:49:14;;;;;;;;;;;;;;;-1.13;86.04;93403.47;5048358;28;19919;-44
2023/02/02 04:51:39;;;;;;;;;;;;;;;-1.11;85.24;93408.41;5043382;28;19912;-45
2023/02/02 04:54:05;;;;;;;;;;;;;;;-1.12;85.97;93409.59;5049391;28;19921;-44
2023/02/02 04:56:30;;;;;;;;;;;;;;;-1.10;85.87;93404.44;5049277;28;20041;-44
2023/02/02 04:58:55;;;;;;;;;;;;;;;-1.06;85.54;93405.75;5046444;28;19924;-45
2023/02/02 05:01:20;;;;;;;;;;;;;;;-1.02;84.95;93410.97;5041104;28;19919;-45
2023/02/02 05:03:46;;;;;;;;;;;;;;;-1.23;85.83;93410.22;5043256;28;19921;-45
2023/02/02 05:06:11;;;;;;;;;;;;;;;-1.39;86.65;93413.47;5044721;28;19913;-45
2023/02/02 05:08:37;;;;;;;;;;;;;;;-1.39;87.14;93412.72;5037196;28;19920;-45
2023/02/02 05:11:09;;;;;;;;;;;;;;;-1.24;86.90;93413.41;5046982;28;19919;-45
2023/02/02 05:13:34;;;;;;;;;;;;;;;-1.22;86.95;93413.69;5044876;28;20384;-45
2023/02/02 05:15:59;;;;;;;;;;;;;;;-1.25;87.14;93412.66;5040594;28;19919;-46
2023/02/02 05:18:25;;;;;;;;;;;;;;;-1.04;86.47;93413.41;5045084;28;20011;-46
2023/02/02 05:20:51;;;;;;;;;;;;;;;-0.99;86.55;93416.19;5048823;28;19916;-45
2023/02/02 05:23:16;;;;;;;;;;;;;;;-0.99;86.92;93408.03;5046184;28;19967;-45
2023/02/02 05:25:41;;;;;;;;;;;;;;;-1.18;87.70;93409.53;5055146;28;20400;-46
2023/02/02 05:28:07;;;;;;;;;;;;;;;-1.28;87.83;93407.44;5051732;28;19913;-45
2023/02/02 05:30:32;;;;;;;;;;;;;;;-1.10;87.31;93399.03;5043337;28;19913;-46
2023/02/02 05:32:57;;;;;;;;;;;;;;;-1.03;87.52;93404.81;5050523;28;19920;-45
2023/02/02 05:35:23;;;;;;;;;;;;;;;-0.98;87.29;93404.13;5045473;28;20387;-46
2023/02/02 05:37:48;;;;;;;;;;;;;;;-1.21;87.43;93407.78;5048071;28;19966;-46
2023/02/02 05:40:13;;;;;;;;;;;;;;;-1.35;88.33;93405.13;5056244;28;20654;-45
2023/02/02 05:42:38;;;;;;;;;;;;;;;-1.47;88.71;93409.66;5039604;28;19936;-46
2023/02/02 05:45:04;;;;;;;;;;;;;;;-1.43;89.12;93415.63;5044034;28;20390;-46
2023/02/02 05:47:29;;;;;;;;;;;;;;;-1.43;89.23;93418.34;5047112;28;19999;-46
2023/02/02 05:49:55;;;;;;;;;;;;;;;-1.29;89.02;93424.91;5041522;28;19917;-45
2023/02/02 05:52:21;;;;;;;;;;;;;;;-1.32;88.94;93428.56;5038566;28;19916;-47
2023/02/02 05:54:46;;;;;;;;;;;;;;;-1.14;88.13;93428.28;5042552;28;19966;-46
2023/02/02 05:57:11;;;;;;;;;;;;;;;-1.19;88.07;93423.56;5044252;28;19923;-46
2023/02/02 05:59:37;;;;;;;;;;;;;;;-1.12;86.97;93418.47;5046962;28;19916;-47
2023/02/02 06:02:02;;;;;;;;;;;;;;;-0.91;87.37;93430.06;5057054;28;19928;-46
2023/02/02 06:04:27;;;;;;;;;;;;;;;-1.07;86.64;93431.34;5049637;28;19920;-46
2023/02/02 06:06:53;;;;;;;;;;;;;;;-1.04;87.60;93437.81;5043937;28;20003;-45
2023/02/02 06:09:18;;;;;;;;;;;;;;;-0.89;87.79;93433.78;5049936;28;20584;-47
2023/02/02 06:11:43;;;;;;;;;;;;;;;-0.89;86.78;93435.75;5043108;28;19912;-46
2023/02/02 06:14:09;;;;;;;;;;;;;;;-0.69;86.48;93437.72;5034884;28;19913;-47
2023/02/02 06:16:34;;;;;;;;;;;;;;;-0.54;84.50;93444.50;5031926;28;19924;-47
2023/02/02 06:18:59;;;;;;;;;;;;;;;-0.57;83.86;93433.88;5044469;28;19912;-46
2023/02/02 06:21:24;;;;;;;;;;;;;;;-0.50;84.02;93441.59;5043552;28;19936;-46
2023/02/02 06:23:50;;;;;;;;;;;;;;;-0.49;83.95;93446.53;5040729;28;20556;-46
2023/02/02 06:26:15;;;;;;;;;;;;;;;-0.33;82.92;93440.53;5038978;28;19917;-46
2023/02/02 06:28:41;;;;;;;;;;;;;;;-0.21;81.55;93422.38;5045994;28;20004;-46
2023/02/02 06:31:07;;;;;;;;;;;;;;;-0.03;80.73;93444.53;5040849;28;20023;-48
2023/02/02 06:33:33;;;;;;;;;;;;;;;0.03;81.22;93441.09;5042305;28;19916;-47
2023/02/02 06:35:59;;;;;;;;;;;;;;;-0.37;82.47;93445.41;5036625;28;19910;-46
2023/02/02 06:38:24;;;;;;;;;;;;;;;-0.16;83.30;93444.16;5042778;28;19916;-46
2023/02/02 06:40:50;;;;;;;;;;;;;;;0.14;81.92;93446.63;5045220;28;19916;-46
2023/02/02 06:43:15;;;;;;;;;;;;;;;0.14;81.23;93454.75;5051130;28;20316;-46
2023/02/02 06:45:40;;;;;;;;;;;;;;;0.25;81.35;93465.72;5052176;28;19960;-46
2023/02/02 06:48:09;;;;;;;;;;;;;;;0.26;81.73;93465.22;5047669;28;19917;-46
2023/02/02 06:50:35;;;;;;;;;;;;;;;0.44;80.08;93470.31;5039019;28;19921;-46
2023/02/02 06:53:00;;;;;;;;;;;;;;;0.33;80.75;93470.22;5040633;28;19991;-47
2023/02/02 06:55:25;;;;;;;;;;;;;;;0.16;80.56;93471.31;5037661;28;20002;-46
2023/02/02 06:57:55;;;;;;;;;;;;;;;0.48;80.85;93470.06;5044497;28;19928;-46
2023/02/02 07:00:20;;;;;;;;;;;;;;;0.31;80.81;93471.91;5037634;28;20082;-46
2023/02/02 07:02:46;;;;;;;;;;;;;;;0.27;81.97;93468.69;5038344;28;20015;-46
2023/02/02 07:05:11;;;;;;;;;;;;;;;0.35;81.84;93473.19;5039202;28;19952;-46
2023/02/02 07:07:36;;;;;;;;;;;;;;;0.50;80.80;93481.94;5037550;28;19978;-46
2023/02/02 07:10:02;;;;;;;;;;;;;;;0.28;81.84;93483.75;5044476;28;19917;-46
2023/02/02 07:12:27;;;;;;;;;;;;;;;0.57;81.28;93481.50;5045013;28;19920;-47
2023/02/02 07:14:52;;;;;;;;;;;;;;;0.64;80.47;93481.06;5045827;28;19966;-47
2023/02/02 07:17:18;;;;;;;;;;;;;;;0.35;81.08;93483.31;5043755;28;20309;-48
2023/02/02 07:19:43;;;;;;;;;;;;;;;0.48;80.45;93484.41;5047690;28;19931;-46
2023/02/02 07:22:08;;;;;;;;;;;;;;;0.78;80.75;93479.41;5053860;28;19916;-47
2023/02/02 07:24:34;;;;;;;;;;;;;;;1.03;78.90;93473.13;5057987;28;19920;-48
2023/02/02 07:26:59;;;;;;;;;;;;;;;1.74;78.14;93477.38;5046164;28;19927;-47
2023/02/02 07:29:24;;;;;;;;;;;;;;;4.04;67.90;93478.72;5043174;28;19920;-49
2023/02/02 07:31:50;;;;;;;;;;;;;;;6.19;62.29;93474.41;5047805;28;19924;-48
2023/02/02 07:34:15;;;;;;;;;;;;;;;9.19;54.09;93468.00;5044558;28;19927;-47
2023/02/02 07:36:40;;;;;;;;;;;;;;;9.94;48.95;93474.00;5037682;28;20645;-46
2023/02/02 07:39:06;;;;;;;;;;;;;;;9.72;46.39;93468.38;5052284;28;20066;-47
2023/02/02 07:41:33;;;;;;;;;;;;;;;9.51;48.94;93470.44;5046182;28;19974;-48
2023/02/02 07:43:58;;;;;;;;;;;;;;;10.29;47.32;93463.50;5041289;28;19920;-47
2023/02/02 07:46:24;;;;;;;;;;;;;;;10.45;46.86;93465.06;5036172;28;20015;-47
2023/02/02 07:48:51;;;;;;;;;;;;;;;10.70;43.95;93468.78;5038388;28;20368;-44
2023/02/02 07:51:17;;;;;;;;;;;;;;;10.51;44.89;93468.38;5033560;28;19921;-47
2023/02/02 07:53:46;;;;;;;;;;;;;;;11.98;42.11;93465.28;5032694;28;19965;-47
2023/02/02 07:56:15;;;;;;;;;;;;;;;13.41;38.44;93461.78;5039129;28;20058;-47
2023/02/02 07:58:41;;;;;;;;;;;;;;;13.95;36.14;93462.03;5050595;28;19916;-46
2023/02/02 08:01:07;;;;;;;;;;;;;;;14.37;35.66;93452.34;5041612;28;19927;-47
2023/02/02 08:03:33;;;;;;;;;;;;;;;14.67;34.71;93447.69;5043300;28;19966;-47
2023/02/02 08:05:58;;;;;;;;;;;;;;;14.00;35.79;93453.47;5037146;28;19921;-46
2023/02/02 08:08:24;;;;;;;;;;;;;;;15.24;33.77;93445.25;5033717;28;19917;-47
2023/02/02 08:10:50;;;;;;;;;;;;;;;15.78;31.51;93454.97;5039868;28;19995;-48
2023/02/02 08:13:15;;;;;;;;;;;;;;;16.73;30.99;93444.44;5032732;28;20008;-47
2023/02/02 08:15:40;;;;;;;;;;;;;;;16.17;30.34;93443.88;5053473;28;19952;-47
2023/02/02 08:18:05;;;;;;;;;;;;;;;16.68;29.03;93443.41;5050218;28;19955;-47
2023/02/02 08:20:31;;;;;;;;;;;;;;;18.25;27.74;93442.34;5042118;28;20363;-47
2023/02/02 08:22:56;;;;;;;;;;;;;;;18.02;28.28;93435.28;5047579;28;19917;-48
2023/02/02 08:25:21;;;;;;;;;;;;;;;18.23;27.64;93436.63;5048316;28;20469;-48
2023/02/02 08:27:46;;;;;;;;;;;;;;;17.15;29.25;93434.22;5044903;28;19960;-48
2023/02/02 08:30:12;;;;;;;;;;;;;;;17.55;27.72;93427.91;5039309;28;19931;-49
2023/02/02 08:32:37;;;;;;;;;;;;;;;17.03;28.88;93435.44;5035608;28;19968;-47
2023/02/02 08:35:03;;;;;;;;;;;;;;;15.54;30.48;93432.91;5037247;28;19919;-47
2023/02/02 08:37:28;;;;;;;;;;;;;;;15.19;31.78;93435.09;5037134;28;19913;-47
2023/02/02 08:39:53;;;;;;;;;;;;;;;13.76;33.46;93445.94;5033965;28;19974;-47
2023/02/02 08:42:19;;;;;;;;;;;;;;;12.44;35.67;93443.72;5035596;28;19920;-47
2023/02/02 08:44:44;;;;;;;;;;;;;;;10.58;37.79;93432.53;5033314;28;20001;-48
2023/02/02 08:47:09;;;;;;;;;;;;;;;10.34;39.45;93440.53;5040011;28;19960;-47
2023/02/02 08:49:35;;;;;;;;;;;;;;;9.70;41.25;93432.34;5037009;28;20031;-48
2023/02/02 08:52:00;;;;;;;;;;;;;;;10.16;40.89;93428.53;5038219;28;20432;-47
2023/02/02 08:54:25;;;;;;;;;;;;;;;11.91;38.08;93439.13;5033429;28;19920;-47
2023/02/02 08:56:50;;;;;;;;;;;;;;;13.97;33.89;93440.72;5036326;28;19966;-47
2023/02/02 08:59:16;;;;;;;;;;;;;;;15.50;31.42;93438.91;5031995;28;19916;-47
2023/02/02 09:01:41;;;;;;;;;;;;;;;15.89;29.58;93428.59;5035810;28;19921;-48
2023/02/02 09:04:07;;;;;;;;;;;;;;;15.88;29.24;93433.44;5035847;28;19920;-48
2023/02/02 09:06:36;;;;;;;;;;;;;;;16.75;29.79;93442.53;5032964;28;19955;-48
2023/02/02 09:09:02;;;;;;;;;;;;;;;16.04;29.54;93436.69;5034029;28;19917;-48
2023/02/02 09:11:27;;;;;;;;;;;;;;;16.05;30.44;93446.47;5038070;28;19917;-47
2023/02/02 09:13:54;;;;;;;;;;;;;;;16.98;28.87;93434.41;5036913;28;19924;-50
2023/02/02 09:16:19;;;;;;;;;;;;;;;17.28;28.64;93435.81;5037964;28;20066;-47
2023/02/02 09:18:45;;;;;;;;;;;;;;;17.74;27.88;93429.84;5033549;28;19999;-48
2023/02/02 09:21:11;;;;;;;;;;;;;;;16.33;28.59;93442.25;5034863;28;19916;-48
2023/02/02 09:23:37;;;;;;;;;;;;;;;17.21;29.36;93445.81;5032763;28;19951;-48
2023/02/02 09:26:22;;;;;;;;;;;;;;;16.05;29.11;93435.34;5032866;28;19913;-50
2023/02/02 09:28:50;;;;;;;;;;;;;;;15.63;30.90;93432.94;5037635;28;20015;-46
2023/02/02 09:31:16;;;;;;;;;;;;;;;17.13;27.18;93433.34;5050926;28;19921;-47
2023/02/02 09:33:41;;;;;;;;;;;;;;;16.87;28.42;93414.78;5048510;28;19916;-47
2023/02/02 09:36:10;;;;;;;;;;;;;;;18.83;25.79;93406.97;5048929;28;20514;-47
2023/02/02 09:38:36;;;;;;;;;;;;;;;17.64;25.90;93406.84;5045867;28;19924;-47
2023/02/02 09:41:09;;;;;;;;;;;;;;;17.88;26.58;93400.09;5045159;28;19916;-47
2023/02/02 09:43:39;;;;;;;;;;;;;;;15.10;30.68;93405.94;5047344;28;19916;-47
2023/02/02 09:46:07;;;;;;;;;;;;;;;16.42;28.52;93392.09;5041557;28;19975;-47
2023/02/02 09:48:44;;;;;;;;;;;;;;;17.08;29.44;93395.34;5037320;28;19920;-47
2023/02/02 09:51:12;;;;;;;;;;;;;;;17.17;28.41;93381.34;5032013;28;19916;-45
2023/02/02 09:53:42;;;;;;;;;;;;;;;17.40;28.18;93369.63;5032198;28;20011;-48
2023/02/02 09:56:10;;;;;;;;;;;;;;;16.66;29.52;93373.59;5036280;28;20015;-48
2023/02/02 09:58:40;;;;;;;;;;;;;;;16.79;28.44;93381.47;5050767;28;19924;-47
2023/02/02 10:01:10;;;;;;;;;;;;;;;15.62;30.23;93372.28;5032785;28;20011;-47
2023/02/02 10:03:36;;;;;;;;;;;;;;;15.02;32.03;93363.63;5035679;28;20418;-47
2023/02/02 10:06:04;;;;;;;;;;;;;;;13.32;32.28;93359.09;5048548;28;20311;-47
2023/02/02 10:08:34;;;;;;;;;;;;;;;12.36;35.58;93357.19;5034863;28;21326;-46
2023/02/02 10:10:59;;;;;;;;;;;;;;;12.80;35.01;93364.47;5029012;28;20019;-47
2023/02/02 10:13:26;;;;;;;;;;;;;;;12.55;36.32;93351.91;5047625;28;20011;-47
2023/02/02 10:16:11;;;;;;;;;;;;;;;12.12;36.26;93334.44;5030462;28;19924;-46
2023/02/02 10:18:55;;;;;;;;;;;;;;;10.98;38.39;93335.34;5036067;28;19912;-47
2023/02/02 10:21:35;;;;;;;;;;;;;;;10.71;39.99;93325.94;5035281;28;19964;-47
2023/02/02 10:24:01;;;;;;;;;;;;;;;10.55;41.21;93325.19;5035047;28;20394;-48
2023/02/02 10:26:26;;;;;;;;;;;;;;;10.15;41.28;93327.00;5034231;28;19921;-47
2023/02/02 10:29:05;;;;;;;;;;;;;;;9.98;41.30;93327.50;5031948;28;19912;-47
2023/02/02 10:31:43;;;;;;;;;;;;;;;9.89;41.45;93317.00;5053556;28;19921;-45
2023/02/02 10:34:14;;;;;;;;;;;;;;;9.85;41.95;93313.84;5032660;28;19913;-46
2023/02/02 10:36:46;;;;;;;;;;;;;;;10.00;41.15;93324.94;5035200;28;19958;-46
2023/02/02 10:39:14;;;;;;;;;;;;;;;9.74;41.78;93320.44;5038984;28;20445;-47
2023/02/02 10:41:45;;;;;;;;;;;;;;;10.23;41.20;93322.22;5037388;28;19924;-47
2023/02/02 10:44:22;;;;;;;;;;;;;;;10.45;41.15;93316.75;5038037;28;19948;-46
2023/02/02 10:46:49;;;;;;;;;;;;;;;10.72;40.50;93319.88;5048719;28;19916;-46
2023/02/02 10:49:31;;;;;;;;;;;;;;;10.09;41.13;93312.63;5046505;28;19936;-47
2023/02/02 10:51:57;;;;;;;;;;;;;;;9.47;42.63;93304.69;5053909;28;19967;-47
2023/02/02 10:54:37;;;;;;;;;;;;;;;9.42;42.56;93297.34;5047436;28;19921;-46
2023/02/02 10:57:02;;;;;;;;;;;;;;;9.72;42.00;93298.19;5039808;28;19912;-46
2023/02/02 10:59:31;;;;;;;;;;;;;;;10.22;42.08;93290.41;5065037;28;19946;-46
2023/02/02 11:01:57;;;;;;;;;;;;;;;10.01;42.25;93285.00;5041008;28;20458;-46
2023/02/02 11:07:06;;;;;;;;;;;;;;;9.65;42.91;93292.66;5053540;28;20437;-47
2023/02/02 11:09:34;;;;;;;;;;;;;;;9.66;43.14;93294.84;5052822;28;19912;-47
2023/02/02 11:12:02;;;;;;;;;;;;;;;9.34;45.00;93282.78;5041398;28;20399;-46
2023/02/02 11:14:30;;;;;;;;;;;;;;;8.39;44.10;93270.84;5052007;28;19929;-46
2023/02/02 11:17:00;;;;;;;;;;;;;;;7.99;45.71;93288.81;5039562;28;19920;-46
2023/02/02 11:19:27;;;;;;;;;;;;;;;7.27;49.17;93287.69;5036975;28;19913;-47
2023/02/02 11:21:56;;;;;;;;;;;;;;;7.76;49.46;93280.34;5041291;28;19971;-47
2023/02/02 11:24:50;;;;;;;;;;;;;;;8.06;48.77;93274.38;5038340;28;19909;-46
2023/02/02 11:27:20;;;;;;;;;;;;;;;7.99;48.19;93273.03;5045103;28;19919;-46
2023/02/02 11:29:46;;;;;;;;;;;;;;;8.40;48.42;93262.06;5039461;28;20394;-46
2023/02/02 11:32:18;;;;;;;;;;;;;;;8.83;48.23;93253.19;5035764;28;19978;-46
2023/02/02 11:34:43;;;;;;;;;;;;;;;9.47;46.16;93252.34;5039944;28;19932;-46
2023/02/02 11:37:12;;;;;;;;;;;;;;;8.89;44.98;93251.00;5041689;28;19917;-46
2023/02/02 11:39:41;;;;;;;;;;;;;;;10.01;44.84;93245.66;5038760;28;19913;-46
2023/02/02 11:42:09;;;;;;;;;;;;;;;10.13;42.74;93253.06;5040620;28;19920;-47
2023/02/02 11:44:35;;;;;;;;;;;;;;;9.85;45.21;93247.69;5058141;28;19939;-47
2023/02/02 11:47:01;;;;;;;;;;;;;;;10.74;43.43;93234.47;5055758;28;20508;-47
2023/02/02 11:49:26;;;;;;;;;;;;;;;11.20;41.83;93238.56;5041864;28;20632;-46
2023/02/02 11:51:56;;;;;;;;;;;;;;;10.64;43.31;93239.81;5036108;28;19961;-47
2023/02/02 11:54:32;;;;;;;;;;;;;;;10.38;43.30;93222.91;5035190;28;20031;-46
2023/02/02 11:56:58;;;;;;;;;;;;;;;10.13;43.36;93242.03;5034559;28;20000;-47
2023/02/02 11:59:27;;;;;;;;;;;;;;;9.00;44.77;93236.19;5041546;28;19920;-46
2023/02/02 12:02:06;;;;;;;;;;;;;;;8.33;47.30;93229.00;5037961;28;20592;-46
2023/02/02 12:04:32;;;;;;;;;;;;;;;7.70;47.72;93213.78;5041226;28;19944;-47
2023/02/02 12:06:57;;;;;;;;;;;;;;;7.55;49.42;93217.13;5031872;28;19952;-47
2023/02/02 12:09:23;;;;;;;;;;;;;;;7.61;49.13;93214.25;5039434;28;19936;-47
2023/02/02 12:11:49;;;;;;;;;;;;;;;7.76;49.26;93210.91;5038505;28;20564;-47
2023/02/02 12:14:40;;;;;;;;;;;;;;;8.10;48.96;93214.31;5037046;28;19916;-46
2023/02/02 12:17:11;;;;;;;;;;;;;;;7.61;50.61;93208.75;5041510;28;19916;-46
2023/02/02 12:19:52;;;;;;;;;;;;;;;7.66;50.12;93216.13;5035905;28;19909;-47
2023/02/02 12:22:17;;;;;;;;;;;;;;;7.37;51.59;93195.31;5033406;28;19975;-47
2023/02/02 12:25:01;;;;;;;;;;;;;;;8.12;50.08;93193.25;5034787;28;19917;-46
2023/02/02 12:27:46;;;;;;;;;;;;;;;7.98;49.45;93185.63;5036426;28;19924;-45
2023/02/02 12:30:30;;;;;;;;;;;;;;;7.72;49.63;93185.78;5037496;28;19909;-45
2023/02/02 12:33:05;;;;;;;;;;;;;;;7.52;50.99;93189.97;5036052;28;19925;-45
2023/02/02 12:35:48;;;;;;;;;;;;;;;7.18;50.88;93190.03;5038064;28;19913;-46
2023/02/02 12:38:27;;;;;;;;;;;;;;;6.68;50.94;93190.34;5032118;28;19913;-46
2023/02/02 12:41:15;;;;;;;;;;;;;;;6.75;52.48;93176.72;5041722;28;20392;-46
2023/02/02 12:43:41;;;;;;;;;;;;;;;6.88;52.64;93173.97;5042458;28;19948;-47
2023/02/02 12:46:21;;;;;;;;;;;;;;;6.66;55.14;93174.41;5034048;28;19972;-47
2023/02/02 12:48:46;;;;;;;;;;;;;;;6.64;55.01;93178.94;5046816;28;19970;-46
2023/02/02 12:51:35;;;;;;;;;;;;;;;7.22;53.59;93176.69;5034950;28;19921;-47
2023/02/02 12:54:19;;;;;;;;;;;;;;;8.60;52.73;93177.97;5037236;28;20316;-47
2023/02/02 12:57:03;;;;;;;;;;;;;;;9.38;47.46;93170.19;5034058;28;20443;-47
2023/02/02 12:59:31;;;;;;;;;;;;;;;9.37;47.10;93175.00;5040855;28;19913;-46
2023/02/02 13:02:14;;;;;;;;;;;;;;;9.31;45.60;93177.19;5037084;28;20015;-47
2023/02/02 13:04:52;;;;;;;;;;;;;;;9.09;46.84;93175.09;5041286;28;19913;-46